Time;durP1;ratioP1;P1;durP2;ratioP2;P2;SDS_P1;SDS_P2;PMS_P1;PMS_P2;Temp;Humidity;BMP_temperature;BMP_pressure;BME280_temperature;BME280_humidity;BME280_pressure;Samples;Min_cycle;Max_cycle;Signal;HPM_P1;HPM_P2
2023/10/14 00:01:07;;;;;;;7.70;3.85;;;;;;;14.22;51.07;95380.84;5011271;28;20128;-77
2023/10/14 00:03:32;;;;;;;9.52;4.00;;;;;;;14.15;51.14;95383.06;5029906;28;20100;-76
2023/10/14 00:06:06;;;;;;;7.30;3.42;;;;;;;14.13;51.03;95382.75;5012525;28;20124;-77
2023/10/14 00:08:39;;;;;;;;;;;;;;;14.04;51.24;95375.91;5029393;28;20039;-77
2023/10/14 00:11:06;;;;;;;7.60;3.90;;;;;;;14.04;51.25;95373.16;5047525;28;20301;-77
2023/10/14 00:13:42;;;;;;;7.53;3.03;;;;;;;13.99;51.53;95375.72;5045802;28;20040;-77
2023/10/14 00:19:08;;;;;;;8.00;3.65;;;;;;;13.89;51.93;95379.63;5029354;28;20044;-77
2023/10/14 00:21:34;;;;;;;11.18;3.97;;;;;;;13.88;51.60;95373.34;5045949;28;20021;-76
2023/10/14 00:24:02;;;;;;;8.80;4.00;;;;;;;13.80;51.70;95372.78;5013097;28;20036;-77
2023/10/14 00:26:28;;;;;;;6.03;3.45;;;;;;;13.81;51.92;95371.56;5028014;28;20037;-77
2023/10/14 00:31:38;;;;;;;7.18;3.40;;;;;;;13.73;52.08;95372.28;5031236;28;20091;-77
2023/10/14 00:34:04;;;;;;;8.35;3.60;;;;;;;13.72;52.20;95367.97;5028388;28;20036;-77
2023/10/14 00:36:34;;;;;;;11.20;4.85;;;;;;;13.74;51.92;95363.53;5029206;28;20074;-77
2023/10/14 00:39:12;;;;;;;8.10;3.67;;;;;;;13.69;51.93;95360.56;5011238;28;20048;-76
2023/10/14 00:41:42;;;;;;;11.35;3.88;;;;;;;13.74;52.20;95369.06;5013928;28;20021;-75
2023/10/14 00:44:09;;;;;;;7.28;4.22;;;;;;;13.66;52.24;95358.72;5026974;28;20021;-76
2023/10/14 00:46:35;;;;;;;7.47;3.80;;;;;;;13.63;52.22;95359.59;5029284;28;20083;-76
2023/10/14 00:49:04;;;;;;;6.88;3.70;;;;;;;13.62;52.22;95349.75;5011485;28;20028;-76
2023/10/14 00:51:33;;;;;;;6.88;3.45;;;;;;;13.60;52.42;95360.50;5028670;28;20025;-76
2023/10/14 00:54:02;;;;;;;6.32;3.75;;;;;;;13.61;52.72;95356.50;5012638;28;20032;-76
2023/10/14 00:56:31;;;;;;;8.77;4.32;;;;;;;13.52;52.68;95348.91;5010875;28;20461;-76
2023/10/14 00:58:58;;;;;;;10.15;3.72;;;;;;;13.52;52.53;95360.72;5028898;28;20025;-76
2023/10/14 01:01:50;;;;;;;7.63;3.20;;;;;;;13.48;52.77;95348.28;5026875;28;20033;-76
2023/10/14 01:04:19;;;;;;;8.07;3.75;;;;;;;13.42;52.60;95341.75;5046239;28;20052;-76
2023/10/14 01:09:41;;;;;;;7.53;3.20;;;;;;;13.40;52.49;95338.66;5044855;28;20029;-76
2023/10/14 01:14:44;;;;;;;6.57;3.30;;;;;;;13.40;52.61;95333.13;5045350;28;20463;-76
2023/10/14 01:17:09;;;;;;;10.48;3.90;;;;;;;13.31;52.84;95328.31;5028039;28;20060;-78
2023/10/14 01:19:35;;;;;;;6.68;3.50;;;;;;;13.25;52.97;95321.81;5046286;28;20503;-76
2023/10/14 01:22:01;;;;;;;8.73;3.53;;;;;;;13.27;53.00;95322.91;5027020;28;20108;-76
2023/10/14 01:24:31;;;;;;;8.05;3.20;;;;;;;13.24;53.18;95318.25;5046652;28;20086;-77
2023/10/14 01:27:03;;;;;;;9.50;4.32;;;;;;;13.22;53.10;95326.22;5044642;28;20106;-77
2023/10/14 01:29:31;;;;;;;8.80;4.10;;;;;;;13.22;52.80;95320.69;5031264;28;20060;-75
2023/10/14 01:32:23;;;;;;;7.35;3.65;;;;;;;13.23;52.99;95321.47;5033499;28;20483;-76
2023/10/14 01:34:49;;;;;;;6.78;3.58;;;;;;;13.20;53.10;95311.31;5052181;28;20099;-76
2023/10/14 01:37:19;;;;;;;8.88;3.45;;;;;;;13.17;53.05;95312.19;5018383;28;20500;-76
2023/10/14 01:39:49;;;;;;;7.63;3.40;;;;;;;13.16;53.22;95321.69;5017120;28;20060;-76
2023/10/14 01:42:16;;;;;;;6.00;3.53;;;;;;;13.10;53.34;95310.44;5052816;28;20029;-76
2023/10/14 01:44:42;;;;;;;8.15;4.00;;;;;;;13.06;53.42;95317.28;5016578;28;20147;-77
2023/10/14 01:47:08;;;;;;;9.93;3.88;;;;;;;13.07;53.39;95318.81;5053006;28;20527;-76
2023/10/14 01:49:36;;;;;;;6.45;3.33;;;;;;;13.05;53.47;95324.78;5033774;28;20033;-76
2023/10/14 01:52:05;;;;;;;6.85;3.88;;;;;;;13.01;53.36;95311.09;5034484;28;20032;-76
2023/10/14 01:54:31;;;;;;;5.93;3.63;;;;;;;12.95;53.57;95312.84;5035531;28;20373;-78
2023/10/14 01:56:57;;;;;;;7.95;3.90;;;;;;;12.97;53.38;95312.44;5033019;28;20077;-76
2023/10/14 01:59:22;;;;;;;9.60;3.83;;;;;;;12.91;53.35;95306.69;5034689;28;20040;-76
2023/10/14 02:01:48;;;;;;;7.10;4.05;;;;;;;13.00;53.29;95320.59;5016230;28;20426;-76
2023/10/14 02:04:15;;;;;;;7.75;3.35;;;;;;;12.98;53.40;95316.72;5035025;28;20115;-76
2023/10/14 02:06:46;;;;;;;9.07;4.00;;;;;;;12.94;53.57;95305.03;5033717;28;20040;-77
2023/10/14 02:09:11;;;;;;;8.13;3.78;;;;;;;12.91;53.62;95311.44;5018573;28;20074;-77
2023/10/14 02:11:38;;;;;;;6.13;4.03;;;;;;;12.88;53.83;95301.28;5034919;28;20404;-78
2023/10/14 02:14:07;;;;;;;7.45;4.60;;;;;;;12.83;54.18;95301.84;5033171;28;20491;-76
2023/10/14 02:16:52;;;;;;;11.02;4.22;;;;;;;12.86;54.50;95314.75;5035248;28;20032;-75
2023/10/14 02:21:57;;;;;;;8.93;4.13;;;;;;;12.72;54.35;95297.41;5052455;28;20033;-77
2023/10/14 02:24:23;;;;;;;7.05;4.40;;;;;;;12.76;54.07;95308.34;5019220;28;20028;-78
2023/10/14 02:26:48;;;;;;;8.75;3.50;;;;;;;12.72;54.25;95302.94;5033410;28;20504;-77
2023/10/14 02:29:15;;;;;;;6.60;3.60;;;;;;;12.74;54.21;95303.28;5018051;28;20075;-78
2023/10/14 02:31:43;;;;;;;8.43;4.18;;;;;;;12.71;54.04;95303.38;5031854;28;20065;-78
2023/10/14 02:34:09;;;;;;;7.00;3.63;;;;;;;12.72;54.29;95300.19;5014937;28;20045;-77
2023/10/14 02:36:36;;;;;;;9.80;4.78;;;;;;;12.80;54.31;95297.22;5029218;28;20029;-76
2023/10/14 02:39:04;;;;;;;9.10;4.07;;;;;;;12.79;54.08;95299.22;5014619;28;20091;-76
2023/10/14 02:41:32;;;;;;;9.45;3.75;;;;;;;12.81;53.93;95298.75;5011244;28;20030;-76
2023/10/14 02:44:19;;;;;;;9.82;4.38;;;;;;;12.72;54.22;95308.47;5027385;28;20033;-77
2023/10/14 02:46:45;;;;;;;8.63;3.95;;;;;;;12.73;54.17;95299.00;5028451;28;20037;-76
2023/10/14 02:49:15;;;;;;;9.48;4.18;;;;;;;12.74;54.25;95303.28;5027621;28;20497;-76
2023/10/14 02:51:44;;;;;;;8.52;4.20;;;;;;;12.69;54.48;95305.81;5028441;28;20018;-75
2023/10/14 02:54:26;;;;;;;6.78;4.00;;;;;;;12.62;54.31;95304.06;5026396;28;20124;-75
2023/10/14 02:57:00;;;;;;;8.68;3.75;;;;;;;12.64;54.57;95306.38;5027418;28;20030;-77
2023/10/14 02:59:45;;;;;;;8.88;3.90;;;;;;;12.59;54.69;95298.66;5027859;28;20018;-76
2023/10/14 03:07:30;;;;;;;7.18;3.70;;;;;;;12.54;54.59;95299.19;5026926;28;20499;-77
2023/10/14 03:10:10;;;;;;;10.32;3.97;;;;;;;12.48;54.62;95294.22;5011576;28;20492;-76
2023/10/14 03:12:39;;;;;;;7.85;4.18;;;;;;;12.45;54.71;95297.13;5011277;28;20045;-76
2023/10/14 03:15:19;;;;;;;8.38;3.78;;;;;;;12.41;54.84;95299.97;5024341;28;20025;-74
2023/10/14 03:18:01;;;;;;;10.40;4.53;;;;;;;12.35;55.11;95296.22;5027284;28;20515;-75
2023/10/14 03:23:23;;;;;;;9.25;4.47;;;;;;;12.37;55.04;95304.03;5028066;28;20488;-76
2023/10/14 03:25:50;;;;;;;9.50;3.72;;;;;;;12.34;55.04;95304.94;5012116;28;20408;-75
2023/10/14 03:28:19;;;;;;;7.28;4.10;;;;;;;12.33;54.99;95301.41;5025115;28;20025;-76
2023/10/14 03:30:56;;;;;;;10.55;4.65;;;;;;;12.30;55.16;95305.03;5028505;28;20030;-75
2023/10/14 03:33:23;;;;;;;7.00;3.90;;;;;;;12.26;54.95;95304.34;5029569;28;20156;-75
2023/10/14 03:38:25;;;;;;;9.55;4.10;;;;;;;12.20;55.18;95295.09;5031401;28;20060;-76
2023/10/14 03:40:53;;;;;;;9.98;4.18;;;;;;;12.18;55.21;95298.28;5028740;28;20037;-76
2023/10/14 03:43:19;;;;;;;7.00;3.80;;;;;;;12.20;55.17;95301.38;5048344;28;20036;-76
2023/10/14 03:45:53;;;;;;;9.27;4.55;;;;;;;12.06;55.13;95292.75;5028165;28;20064;-75
2023/10/14 03:48:20;;;;;;;6.53;3.90;;;;;;;12.15;55.23;95303.88;5031663;28;20025;-75
2023/10/14 03:50:46;;;;;;;9.43;4.03;;;;;;;12.06;55.39;95298.25;5047005;28;20129;-75
2023/10/14 03:53:12;;;;;;;7.25;4.03;;;;;;;12.06;55.38;95298.25;5029164;28;20035;-75
2023/10/14 03:55:38;;;;;;;7.88;3.83;;;;;;;12.02;55.38;95290.09;5029825;28;20025;-76
2023/10/14 03:58:04;;;;;;;6.50;3.97;;;;;;;11.98;55.32;95283.13;5028037;28;20392;-74
2023/10/14 04:00:40;;;;;;;7.63;4.32;;;;;;;12.03;55.50;95290.84;5030086;28;20032;-75
2023/10/14 04:03:12;;;;;;;7.20;3.95;;;;;;;11.89;55.52;95281.03;5029223;28;20051;-75
2023/10/14 04:05:51;;;;;;;9.23;4.65;;;;;;;11.85;55.45;95278.38;5030128;28;20095;-75
2023/10/14 04:08:24;;;;;;;9.00;4.22;;;;;;;11.84;55.59;95287.06;5015712;28;20407;-75
2023/10/14 04:10:54;;;;;;;7.55;4.03;;;;;;;11.79;55.98;95282.84;5045771;28;20468;-75
2023/10/14 04:13:21;;;;;;;8.35;4.28;;;;;;;11.79;55.79;95288.34;5030627;28;20454;-75
2023/10/14 04:15:58;;;;;;;9.63;4.70;;;;;;;11.75;56.00;95289.66;5011151;28;20024;-75
2023/10/14 04:18:24;;;;;;;9.18;4.00;;;;;;;11.71;56.05;95284.25;5031481;28;20125;-74
2023/10/14 04:21:13;;;;;;;8.73;3.92;;;;;;;11.69;56.01;95275.63;5046054;28;20108;-75
2023/10/14 04:23:59;;;;;;;6.43;3.90;;;;;;;11.71;56.21;95281.50;5031027;28;20036;-74
2023/10/14 04:26:24;;;;;;;9.27;3.95;;;;;;;11.70;56.23;95286.25;5032433;28;20029;-74
2023/10/14 04:28:58;;;;;;;8.52;4.40;;;;;;;11.68;56.25;95283.13;5027099;28;20036;-74
2023/10/14 04:31:39;;;;;;;10.13;6.45;;;;;;;11.66;56.35;95282.03;5047422;28;20483;-74
2023/10/14 04:34:10;;;;;;;8.20;5.00;;;;;;;11.69;56.22;95281.91;5028450;28;20080;-74
2023/10/14 04:39:14;;;;;;;7.93;4.60;;;;;;;11.67;56.43;95292.59;5029204;28;20059;-74
2023/10/14 04:41:48;;;;;;;12.10;5.18;;;;;;;11.64;56.58;95290.72;5028866;28;20348;-74
2023/10/14 04:44:13;;;;;;;12.15;4.50;;;;;;;11.59;56.59;95285.75;5030795;28;20032;-75
2023/10/14 04:47:01;;;;;;;11.07;4.78;;;;;;;11.59;56.59;95287.75;5045241;28;20450;-74
2023/10/14 04:49:42;;;;;;;9.27;4.88;;;;;;;11.59;56.62;95287.75;5030642;28;20128;-75
2023/10/14 04:52:07;;;;;;;10.98;5.15;;;;;;;11.56;56.75;95283.09;5029113;28;20025;-75
2023/10/14 04:54:52;;;;;;;11.07;6.00;;;;;;;11.58;56.63;95288.94;5044956;28;20418;-75
2023/10/14 04:57:21;;;;;;;16.60;5.85;;;;;;;11.54;56.57;95282.75;5031788;28;20091;-75
2023/10/14 04:59:54;;;;;;;15.73;6.55;;;;;;;11.52;56.84;95290.66;5028202;28;20017;-75
2023/10/14 05:02:24;;;;;;;9.77;5.30;;;;;;;11.58;56.57;95291.69;5045907;28;20021;-76
2023/10/14 05:04:51;;;;;;;12.20;5.05;;;;;;;11.63;56.53;95293.91;5028059;28;20057;-76
2023/10/14 05:07:18;;;;;;;13.25;5.30;;;;;;;11.59;56.69;95290.50;5026867;28;20037;-75
2023/10/14 05:09:55;;;;;;;12.77;5.78;;;;;;;11.63;56.57;95293.91;5028991;28;20051;-74
2023/10/14 05:12:24;;;;;;;13.93;5.32;;;;;;;11.65;56.28;95303.28;5044918;28;20033;-75
2023/10/14 05:14:51;;;;;;;13.95;6.03;;;;;;;11.64;56.56;95292.69;5029007;28;20016;-76
2023/10/14 05:17:16;;;;;;;13.07;4.93;;;;;;;11.67;56.35;95297.34;5027886;28;20044;-76
2023/10/14 05:19:43;;;;;;;9.95;5.10;;;;;;;11.65;56.43;95297.00;5027690;28;20055;-75
2023/10/14 05:22:19;;;;;;;12.48;5.38;;;;;;;11.63;56.38;95300.19;5028567;28;20028;-75
2023/10/14 05:25:03;;;;;;;12.80;6.03;;;;;;;11.65;56.65;95299.75;5027673;28;20103;-75
2023/10/14 05:27:45;;;;;;;9.70;5.38;;;;;;;11.63;56.52;95304.91;5031423;28;20060;-75
2023/10/14 05:30:15;;;;;;;10.52;5.78;;;;;;;11.66;56.42;95312.31;5045582;28;20561;-75
2023/10/14 05:32:43;;;;;;;14.02;5.82;;;;;;;11.71;56.40;95303.53;5028190;28;20028;-74
2023/10/14 05:35:09;;;;;;;11.23;6.22;;;;;;;11.78;56.38;95305.31;5012207;28;20049;-76
2023/10/14 05:37:35;;;;;;;10.40;5.30;;;;;;;11.79;56.45;95318.66;5026644;28;20029;-76
2023/10/14 05:40:01;;;;;;;12.90;6.60;;;;;;;11.83;56.49;95316.59;5028790;28;20029;-77
2023/10/14 05:42:27;;;;;;;10.20;6.38;;;;;;;11.89;56.40;95314.09;5027129;28;20102;-77
2023/10/14 05:44:57;;;;;;;18.58;6.05;;;;;;;11.88;56.52;95313.31;5028614;28;20112;-76
2023/10/14 05:47:27;;;;;;;18.45;6.20;;;;;;;11.94;56.33;95316.31;5028318;28;20025;-76
2023/10/14 05:49:52;;;;;;;12.27;6.90;;;;;;;12.00;56.35;95319.31;5028259;28;20029;-74
2023/10/14 05:52:21;;;;;;;13.80;6.38;;;;;;;12.15;56.15;95332.22;5046554;28;20527;-74
2023/10/14 05:54:49;;;;;;;12.15;7.63;;;;;;;12.19;56.04;95327.38;5044668;28;20027;-75
2023/10/14 05:57:17;;;;;;;21.13;7.90;;;;;;;12.26;56.02;95325.63;5028306;28;20021;-76
2023/10/14 05:59:43;;;;;;;23.08;8.68;;;;;;;12.32;56.05;95332.16;5027049;28;20503;-76
2023/10/14 06:02:12;;;;;;;13.93;7.95;;;;;;;12.38;55.94;95333.16;5028314;28;20561;-76
2023/10/14 06:04:42;;;;;;;19.65;9.00;;;;;;;12.42;55.67;95326.31;5010880;28;20411;-76
2023/10/14 06:07:08;;;;;;;13.85;7.90;;;;;;;12.51;55.78;95331.19;5028156;28;20029;-76
2023/10/14 06:09:37;;;;;;;11.88;7.60;;;;;;;12.58;55.66;95328.22;5028351;28;20072;-74
2023/10/14 06:12:12;;;;;;;14.32;7.10;;;;;;;12.58;55.68;95322.69;5026387;28;20036;-74
2023/10/14 06:14:38;;;;;;;11.48;6.35;;;;;;;12.73;55.27;95328.53;5029795;28;20021;-76
2023/10/14 06:17:03;;;;;;;10.82;6.32;;;;;;;12.77;55.30;95329.22;5027507;28;20033;-75
2023/10/14 06:19:30;;;;;;;13.10;6.35;;;;;;;12.86;54.84;95323.81;5049896;28;20743;-75
2023/10/14 06:21:56;;;;;;;10.45;5.70;;;;;;;12.91;54.61;95320.50;5048415;28;20025;-76
2023/10/14 06:24:23;;;;;;;10.88;6.65;;;;;;;13.02;54.52;95328.44;5031439;28;20449;-76
2023/10/14 06:26:48;;;;;;;9.30;5.50;;;;;;;13.12;54.32;95315.50;5031810;28;20029;-76
2023/10/14 06:29:14;;;;;;;12.27;5.93;;;;;;;13.18;54.30;95322.00;5047778;28;20071;-76
2023/10/14 06:31:40;;;;;;;12.60;6.18;;;;;;;13.26;53.95;95315.06;5031819;28;20021;-76
2023/10/14 06:34:09;;;;;;;10.50;6.07;;;;;;;13.30;53.84;95312.94;5025992;28;20049;-76
2023/10/14 06:36:37;;;;;;;9.32;5.90;;;;;;;13.43;53.72;95316.47;5028287;28;20030;-76
2023/10/14 06:39:26;;;;;;;12.30;5.80;;;;;;;13.49;53.42;95319.44;5026634;28;20072;-76
2023/10/14 06:41:52;;;;;;;10.05;6.03;;;;;;;13.58;53.40;95319.50;5027116;28;20036;-77
2023/10/14 06:44:20;;;;;;;8.57;6.25;;;;;;;13.65;53.21;95322.03;5028007;28;20026;-76
2023/10/14 06:46:45;;;;;;;11.57;7.25;;;;;;;13.78;53.01;95310.94;5026427;28;20091;-76
2023/10/14 06:49:16;;;;;;;13.65;6.45;;;;;;;13.86;52.87;95314.97;5011366;28;20026;-74
2023/10/14 06:51:42;;;;;;;11.85;5.78;;;;;;;13.94;52.73;95316.28;5026187;28;20472;-75
2023/10/14 06:54:09;;;;;;;13.60;6.82;;;;;;;14.04;52.35;95314.31;5029307;28;20057;-75
2023/10/14 06:56:36;;;;;;;14.85;6.88;;;;;;;14.14;52.09;95317.94;5026699;28;20104;-75
2023/10/14 06:59:01;;;;;;;10.65;6.32;;;;;;;14.23;52.04;95316.00;5027291;28;20026;-75
2023/10/14 07:01:28;;;;;;;11.15;6.80;;;;;;;14.32;51.83;95309.75;5027484;28;20044;-77
2023/10/14 07:03:54;;;;;;;13.77;7.20;;;;;;;14.44;51.48;95311.66;5027536;28;20036;-74
2023/10/14 07:06:20;;;;;;;14.98;7.13;;;;;;;14.55;51.50;95303.75;5010913;28;20469;-76
2023/10/14 07:08:48;;;;;;;14.73;8.20;;;;;;;14.64;51.35;95305.81;5027144;28;20026;-76
2023/10/14 07:11:15;;;;;;;14.80;7.97;;;;;;;14.78;51.21;95299.69;5027255;28;20418;-75
2023/10/14 07:13:42;;;;;;;12.55;7.15;;;;;;;14.93;50.74;95296.38;5025809;28;20037;-78
2023/10/14 07:16:08;;;;;;;18.50;8.98;;;;;;;15.09;50.24;95307.19;5027335;28;20027;-77
2023/10/14 07:18:36;;;;;;;15.68;7.40;;;;;;;15.20;49.49;95304.00;5026708;28;20044;-78
2023/10/14 07:21:03;;;;;;;10.00;6.53;;;;;;;15.33;49.29;95291.56;5025797;28;20056;-76
2023/10/14 07:23:29;;;;;;;16.83;6.85;;;;;;;15.43;49.21;95297.88;5010897;28;20558;-76
2023/10/14 07:25:57;;;;;;;13.43;6.68;;;;;;;15.54;49.14;95300.97;5025744;28;20037;-76
2023/10/14 07:28:23;;;;;;;13.95;6.50;;;;;;;15.67;48.80;95287.00;5028031;28;20049;-77
2023/10/14 07:30:49;;;;;;;10.52;6.82;;;;;;;15.78;48.53;95290.06;5026618;28;20063;-76
2023/10/14 07:33:16;;;;;;;12.77;7.35;;;;;;;15.95;48.05;95289.75;5029768;28;20036;-77
2023/10/14 07:35:41;;;;;;;13.77;6.95;;;;;;;16.14;47.98;95289.25;5029527;28;20128;-76
2023/10/14 07:38:11;;;;;;;11.48;6.47;;;;;;;16.32;47.50;95284.91;5047236;28;20100;-77
2023/10/14 07:40:36;;;;;;;13.70;6.60;;;;;;;16.53;46.56;95283.94;5030553;28;20029;-77
2023/10/14 07:43:13;;;;;;;14.32;7.40;;;;;;;16.64;46.52;95284.22;5028127;28;20028;-75
2023/10/14 07:45:43;;;;;;;13.02;7.03;;;;;;;16.87;46.08;95287.53;5047671;28;20039;-75
2023/10/14 07:48:12;;;;;;;9.95;6.13;;;;;;;17.08;45.57;95272.59;5028158;28;20677;-75
2023/10/14 07:50:42;;;;;;;14.73;6.75;;;;;;;17.28;45.15;95269.25;5029378;28;20055;-75
2023/10/14 07:53:10;;;;;;;12.10;6.57;;;;;;;17.57;44.39;95262.28;5046644;28;20498;-76
2023/10/14 07:55:39;;;;;;;10.95;7.80;;;;;;;17.88;43.77;95264.66;5011774;28;20495;-76
2023/10/14 07:58:08;;;;;;;11.20;6.80;;;;;;;18.17;43.23;95263.94;5030297;28;20781;-76
2023/10/14 08:00:39;;;;;;;14.48;6.63;;;;;;;18.55;42.41;95263.84;5027067;28;20025;-76
2023/10/14 08:03:14;;;;;;;14.45;6.35;;;;;;;18.98;41.21;95255.94;5013856;28;20028;-76
2023/10/14 08:05:40;;;;;;;14.65;6.68;;;;;;;19.44;40.05;95257.28;5012183;28;20380;-76
2023/10/14 08:08:09;;;;;;;18.67;7.38;;;;;;;19.82;39.74;95254.22;5029515;28;20529;-75
2023/10/14 08:10:34;;;;;;;19.35;8.52;;;;;;;20.26;38.23;95261.56;5029318;28;20048;-76
2023/10/14 08:13:06;;;;;;;15.75;7.82;;;;;;;20.60;37.85;95257.06;5009849;28;20021;-75
2023/10/14 08:15:32;;;;;;;11.00;7.15;;;;;;;21.01;37.14;95254.06;5047194;28;20041;-76
2023/10/14 08:17:58;;;;;;;13.50;6.28;;;;;;;21.47;36.29;95255.88;5027542;28;20025;-75
2023/10/14 08:20:24;;;;;;;10.18;5.50;;;;;;;21.96;35.08;95256.56;5029161;28;20075;-76
2023/10/14 08:22:49;;;;;;;9.32;5.63;;;;;;;22.41;33.81;95246.25;5027578;28;20724;-76
2023/10/14 08:25:19;;;;;;;10.98;5.78;;;;;;;22.88;33.52;95243.75;5028737;28;20136;-76
2023/10/14 08:27:46;;;;;;;16.23;6.88;;;;;;;23.30;32.88;95237.03;5019009;28;20037;-76
2023/10/14 08:30:12;;;;;;;12.20;6.53;;;;;;;23.72;31.97;95235.13;5027895;28;20483;-78
2023/10/14 08:32:41;;;;;;;15.00;6.78;;;;;;;24.21;30.76;95229.03;5012232;28;20106;-76
2023/10/14 08:35:17;;;;;;;14.52;6.95;;;;;;;24.77;30.67;95235.00;5026630;28;20045;-77
2023/10/14 08:37:53;;;;;;;15.43;6.70;;;;;;;25.42;29.45;95230.59;5009539;28;20034;-77
2023/10/14 08:40:20;;;;;;;10.77;6.60;;;;;;;26.16;28.05;95215.09;5005403;28;20025;-75
2023/10/14 08:42:49;;;;;;;13.68;6.32;;;;;;;26.91;27.16;95221.91;5007543;28;20045;-76
2023/10/14 08:45:22;;;;;;;9.60;5.13;;;;;;;27.55;25.94;95206.91;5039138;28;20047;-78
2023/10/14 08:47:51;;;;;;;10.65;5.03;;;;;;;28.36;24.97;95211.91;5010043;28;20569;-78
2023/10/14 08:50:24;;;;;;;9.85;5.10;;;;;;;29.36;23.96;95209.44;5009190;28;20040;-78
2023/10/14 08:52:53;;;;;;;9.15;5.30;;;;;;;30.47;22.51;95215.31;5010649;28;20017;-77
2023/10/14 08:55:19;;;;;;;12.38;5.53;;;;;;;31.54;20.96;95206.09;5011351;28;20087;-78
2023/10/14 08:57:46;;;;;;;12.90;5.30;;;;;;;32.47;20.32;95208.13;5027313;28;20491;-78
2023/10/14 09:00:19;;;;;;;14.23;5.15;;;;;;;33.31;19.23;95201.81;5027544;28;20028;-79
2023/10/14 09:02:48;;;;;;;9.57;4.95;;;;;;;33.85;17.95;95202.09;5028264;28;20455;-79
2023/10/14 09:05:16;;;;;;;10.65;5.07;;;;;;;34.48;17.65;95210.13;5010162;28;20556;-77
2023/10/14 09:07:46;;;;;;;9.45;4.85;;;;;;;35.02;17.49;95207.25;5012071;28;20033;-80
2023/10/14 09:10:12;;;;;;;11.90;5.00;;;;;;;35.46;16.90;95197.03;5011495;28;20032;-77
2023/10/14 09:12:38;;;;;;;12.65;5.60;;;;;;;36.16;16.33;95200.88;5011966;28;20120;-79
2023/10/14 09:15:03;;;;;;;13.68;5.35;;;;;;;36.49;16.02;95186.09;5027638;28;20167;-78
2023/10/14 09:17:29;;;;;;;10.70;4.72;;;;;;;36.98;15.44;95193.19;5011761;28;20028;-75
2023/10/14 09:19:55;;;;;;;13.02;4.28;;;;;;;37.24;15.06;95179.97;5013121;28;20033;-77
2023/10/14 09:22:24;;;;;;;10.35;4.43;;;;;;;37.53;15.14;95179.84;5023362;28;20033;-79
2023/10/14 09:24:52;;;;;;;10.70;4.85;;;;;;;37.70;14.79;95173.81;5028603;28;20136;-82
2023/10/14 09:27:19;;;;;;;10.43;4.82;;;;;;;38.36;14.29;95175.28;5026517;28;20102;-83
2023/10/14 09:29:45;;;;;;;10.20;4.35;;;;;;;38.95;13.90;95170.44;5027256;28;20029;-77
2023/10/14 09:32:11;;;;;;;14.20;5.15;;;;;;;39.50;13.26;95163.03;5009821;28;20067;-77
2023/10/14 09:34:41;;;;;;;12.70;4.75;;;;;;;39.52;13.59;95159.56;5024389;28;20480;-76
2023/10/14 09:37:10;;;;;;;10.10;4.40;;;;;;;40.11;12.83;95148.69;5008659;28;20459;-76
2023/10/14 09:39:39;;;;;;;11.05;4.32;;;;;;;40.49;12.55;95143.59;5006970;28;20111;-77
2023/10/14 09:42:10;;;;;;;8.57;4.20;;;;;;;40.66;12.38;95136.63;5024797;28;20033;-80
2023/10/14 09:44:39;;;;;;;11.20;4.40;;;;;;;41.08;12.29;95136.09;5023162;28;20385;-80
2023/10/14 09:47:09;;;;;;;10.40;4.13;;;;;;;41.70;11.79;95130.63;5024961;28;20026;-77
2023/10/14 09:49:35;;;;;;;12.80;5.38;;;;;;;42.15;11.56;95128.63;5024160;28;20049;-77
2023/10/14 09:52:02;;;;;;;9.85;4.53;;;;;;;42.70;11.10;95127.66;5027465;28;20026;-78
2023/10/14 09:54:30;;;;;;;9.13;4.20;;;;;;;43.09;10.80;95115.00;5028393;28;20048;-77
2023/10/14 09:56:55;;;;;;;10.02;4.15;;;;;;;43.43;10.40;95110.03;5011128;28;20033;-82
2023/10/14 09:59:22;;;;;;;9.25;4.40;;;;;;;43.34;10.16;95097.31;5014045;28;20095;-81
2023/10/14 10:01:47;;;;;;;10.52;3.92;;;;;;;43.42;10.44;95106.38;5006847;28;20033;-85
2023/10/14 10:04:16;;;;;;;9.98;3.53;;;;;;;44.01;10.23;95095.84;5023613;28;20025;-83
2023/10/14 10:06:57;;;;;;;8.38;3.72;;;;;;;43.81;10.09;95092.84;5027165;28;20022;-82
2023/10/14 10:09:52;;;;;;;9.98;4.13;;;;;;;44.02;9.92;95086.47;5008584;28;20030;-78
2023/10/14 10:12:20;;;;;;;9.77;3.25;;;;;;;44.42;9.67;95086.66;5024675;28;20508;-80
2023/10/14 10:14:48;;;;;;;7.15;3.50;;;;;;;44.66;9.62;95081.06;5009861;28;20075;-80
2023/10/14 10:17:15;;;;;;;7.38;3.58;;;;;;;44.96;9.67;95076.41;5011483;28;20060;-83
2023/10/14 10:20:09;;;;;;;9.27;3.40;;;;;;;45.39;9.26;95063.53;5027081;28;20385;-84
2023/10/14 10:22:51;;;;;;;10.05;4.00;;;;;;;45.54;9.40;95059.72;5028865;28;20417;-76
2023/10/14 10:25:37;;;;;;;7.97;3.20;;;;;;;45.98;9.08;95053.91;5028492;28;20587;-82
2023/10/14 10:28:27;;;;;;;8.02;3.63;;;;;;;46.06;9.49;95048.38;5012021;28;20452;-81
2023/10/14 10:30:55;;;;;;;9.80;3.42;;;;;;;46.32;9.05;95036.88;5024244;28;20041;-80
2023/10/14 10:33:23;;;;;;;9.15;3.50;;;;;;;46.49;9.10;95043.94;5030997;28;20045;-80
2023/10/14 10:35:56;;;;;;;10.75;3.40;;;;;;;46.88;9.13;95036.41;5029939;28;20147;-81
2023/10/14 10:38:23;;;;;;;12.45;3.83;;;;;;;47.23;8.79;95025.72;5031747;28;20076;-87
2023/10/14 10:41:27;;;;;;;8.73;3.25;;;;;;;47.21;8.68;95017.69;5011053;28;20467;-84
2023/10/14 10:44:01;;;;;;;9.75;2.97;;;;;;;46.92;7.88;95016.16;5012899;28;20029;-86
2023/10/14 10:46:29;;;;;;;9.25;2.75;;;;;;;47.06;8.26;95007.09;5015358;28;20059;-85
2023/10/14 10:48:55;;;;;;;6.95;2.88;;;;;;;47.17;7.75;95005.94;5049350;28;20024;-83
2023/10/14 10:51:21;;;;;;;6.35;2.58;;;;;;;47.35;7.62;94994.81;5032163;28;20025;-82
2023/10/14 10:53:49;;;;;;;6.32;2.85;;;;;;;47.41;7.88;95005.13;5048014;28;20033;-80
2023/10/14 10:56:18;;;;;;;4.97;2.42;;;;;;;47.77;7.61;94991.53;5031423;28;20033;-81
2023/10/14 10:58:44;;;;;;;9.18;3.00;;;;;;;48.02;7.79;94989.25;5029765;28;20035;-79
2023/10/14 11:01:10;;;;;;;6.93;2.80;;;;;;;48.20;7.49;94983.09;5030716;28;20025;-76
2023/10/14 11:03:36;;;;;;;9.20;2.90;;;;;;;48.54;7.62;94989.69;5029066;28;20025;-79
2023/10/14 11:06:02;;;;;;;11.63;2.97;;;;;;;48.84;7.38;94977.94;5028619;28;20086;-77
2023/10/14 11:08:27;;;;;;;8.10;2.65;;;;;;;49.04;7.08;94973.94;5014001;28;20461;-77
2023/10/14 11:10:53;;;;;;;4.78;2.45;;;;;;;49.35;7.36;94964.34;5028597;28;20510;-84
2023/10/14 11:13:18;;;;;;;5.13;2.60;;;;;;;49.60;6.52;94962.59;5030100;28;20048;-76
2023/10/14 11:15:46;;;;;;;7.20;2.70;;;;;;;49.78;6.83;94956.34;5008372;28;20519;-75
2023/10/14 11:18:13;;;;;;;7.13;3.00;;;;;;;49.87;6.92;94960.13;5011203;28;20033;-74
2023/10/14 11:20:41;;;;;;;9.15;2.70;;;;;;;49.68;6.72;94951.06;5020561;28;20028;-75
2023/10/14 11:23:08;;;;;;;3.65;2.00;;;;;;;49.69;6.59;94940.84;5028639;28;20029;-73
2023/10/14 11:25:45;;;;;;;4.28;2.53;;;;;;;49.37;7.02;94941.00;5014303;28;20037;-74
2023/10/14 11:28:14;;;;;;;3.88;2.10;;;;;;;48.33;7.18;94926.53;5011315;28;20037;-74
2023/10/14 11:30:47;;;;;;;5.47;1.77;;;;;;;46.37;7.59;94923.69;5030598;28;20036;-79
2023/10/14 11:33:14;;;;;;;6.32;2.40;;;;;;;45.30;8.45;94923.19;5024168;28;20044;-81
2023/10/14 11:35:40;;;;;;;6.25;2.47;;;;;;;44.19;9.33;94919.94;5014113;28;20029;-80
2023/10/14 11:38:07;;;;;;;6.38;2.75;;;;;;;43.28;9.77;94919.88;5029427;28;20482;-79
2023/10/14 11:40:37;;;;;;;6.38;3.03;;;;;;;42.36;10.40;94924.53;5029243;28;20017;-81
2023/10/14 11:43:07;;;;;;;5.03;2.50;;;;;;;41.39;10.71;94909.88;5029819;28;20102;-78
2023/10/14 11:45:32;;;;;;;5.00;2.42;;;;;;;40.65;11.24;94905.41;5011564;28;20040;-75
2023/10/14 11:48:01;;;;;;;7.00;2.38;;;;;;;39.83;11.67;94906.81;4999621;28;20037;-74
2023/10/14 11:50:29;;;;;;;7.65;2.50;;;;;;;38.91;11.99;94897.25;5024784;28;20464;-81
2023/10/14 11:52:57;;;;;;;5.75;2.55;;;;;;;38.23;13.04;94901.06;5010207;28;20037;-77
2023/10/14 11:55:25;;;;;;;5.15;2.58;;;;;;;37.56;13.24;94896.84;4998203;28;20024;-78
2023/10/14 11:57:53;;;;;;;7.30;2.70;;;;;;;37.05;13.86;94893.56;5012434;28;20032;-77
2023/10/14 12:00:20;;;;;;;7.22;3.03;;;;;;;36.60;14.24;94885.63;5013488;28;20052;-76
2023/10/14 12:02:50;;;;;;;6.43;2.60;;;;;;;36.13;14.43;94875.94;5028271;28;20028;-78
2023/10/14 12:05:16;;;;;;;6.50;3.40;;;;;;;35.76;15.30;94876.25;5012783;28;20679;-74
2023/10/14 12:07:51;;;;;;;7.88;2.60;;;;;;;35.32;15.51;94873.78;5007530;28;20044;-77
2023/10/14 12:10:17;;;;;;;6.70;2.90;;;;;;;34.88;15.67;94871.28;5009677;28;20048;-80